Time;durP1;ratioP1;P1;durP2;ratioP2;P2;SDS_P1;SDS_P2;PMS_P1;PMS_P2;Temp;Humidity;BMP_temperature;BMP_pressure;BME280_temperature;BME280_humidity;BME280_pressure;Samples;Min_cycle;Max_cycle;Signal;HPM_P1;HPM_P2
2023/04/09 00:02:15;;;;;;;53.35;38.83;;;;;;;9.28;93.75;102370.78;5023073;28;20072;-75
2023/04/09 00:04:40;;;;;;;48.92;37.17;;;;;;;9.29;92.74;102377.88;5029360;28;20424;-75
2023/04/09 00:07:06;;;;;;;50.53;37.15;;;;;;;9.28;93.21;102381.50;5024538;28;20667;-76
2023/04/09 00:09:31;;;;;;;53.90;37.50;;;;;;;9.26;94.62;102378.03;5025570;28;20025;-75
2023/04/09 00:11:57;;;;;;;53.42;38.78;;;;;;;9.25;95.15;102370.91;5021579;28;20022;-75
2023/04/09 00:14:22;;;;;;;54.35;37.95;;;;;;;9.24;94.45;102366.50;5030644;28;20036;-75
2023/04/09 00:16:48;;;;;;;60.13;40.28;;;;;;;9.22;93.91;102369.25;5027865;28;20108;-75
2023/04/09 00:19:13;;;;;;;55.95;40.75;;;;;;;9.23;94.91;102367.44;5027356;28;20033;-76
2023/04/09 00:21:38;;;;;;;51.83;38.25;;;;;;;9.24;94.75;102369.19;5026073;28;20036;-76
2023/04/09 00:24:04;;;;;;;51.25;36.05;;;;;;;9.24;94.96;102369.19;5030528;28;20037;-75
2023/04/09 00:26:30;;;;;;;52.03;37.72;;;;;;;9.24;95.03;102366.50;5020474;28;20046;-76
2023/04/09 00:28:55;;;;;;;50.13;35.85;;;;;;;9.25;95.50;102362.84;5022507;28;20093;-76
2023/04/09 00:31:20;;;;;;;46.38;34.35;;;;;;;9.23;95.89;102360.25;5027301;28;20049;-75
2023/04/09 00:33:46;;;;;;;51.03;36.80;;;;;;;9.22;95.17;102354.94;5030667;28;20034;-76
2023/04/09 00:36:11;;;;;;;46.92;35.15;;;;;;;9.20;96.56;102352.34;5014696;28;20026;-75
2023/04/09 00:38:36;;;;;;;46.85;32.70;;;;;;;9.19;95.70;102357.75;5030849;28;20119;-76
2023/04/09 00:41:02;;;;;;;45.30;32.35;;;;;;;9.17;95.62;102352.47;5028234;28;20029;-75
2023/04/09 00:43:27;;;;;;;45.10;31.52;;;;;;;9.20;96.89;102362.19;5024017;28;20091;-75
2023/04/09 00:45:53;;;;;;;44.70;31.88;;;;;;;9.21;97.23;102350.50;5028623;28;20022;-75
2023/04/09 00:48:18;;;;;;;43.65;31.08;;;;;;;9.21;97.61;102354.09;5029134;28;20520;-75
2023/04/09 00:50:43;;;;;;;43.80;31.50;;;;;;;9.24;97.89;102358.44;5022353;28;20475;-75
2023/04/09 00:53:11;;;;;;;42.92;30.70;;;;;;;9.22;97.56;102355.84;5028414;28;20017;-75
2023/04/09 00:55:40;;;;;;;43.88;29.88;;;;;;;9.20;97.65;102352.34;5019541;28;20033;-76
2023/04/09 00:58:05;;;;;;;41.22;27.30;;;;;;;9.20;96.97;102356.84;5021969;28;20167;-76
2023/04/09 01:00:30;;;;;;;41.67;28.80;;;;;;;9.19;98.15;102355.09;5018854;28;20034;-75
2023/04/09 01:02:57;;;;;;;42.30;28.70;;;;;;;9.18;97.29;102353.31;5022853;28;20075;-76
2023/04/09 01:05:33;;;;;;;41.08;29.17;;;;;;;9.17;97.86;102346.25;5030491;28;20036;-75
2023/04/09 01:08:18;;;;;;;40.92;28.20;;;;;;;9.19;97.80;102344.34;5026996;28;20057;-76
2023/04/09 01:11:00;;;;;;;39.88;27.92;;;;;;;9.19;97.91;102344.34;5014961;28;20040;-76
2023/04/09 01:13:40;;;;;;;39.67;26.38;;;;;;;9.18;97.72;102337.22;5013454;28;20105;-75
2023/04/09 01:16:09;;;;;;;38.20;26.67;;;;;;;9.16;97.05;102336.44;5021637;28;20030;-76
2023/04/09 01:18:46;;;;;;;42.05;27.77;;;;;;;9.15;96.56;102332.91;5014002;28;20029;-76
2023/04/09 01:21:15;;;;;;;37.75;24.65;;;;;;;9.13;97.55;102329.41;5023684;28;20449;-76
2023/04/09 01:24:07;;;;;;;41.30;25.52;;;;;;;9.15;97.36;102329.31;5028030;28;20069;-76
2023/04/09 01:26:55;;;;;;;37.25;25.73;;;;;;;9.15;97.26;102329.31;5025537;28;20052;-75
2023/04/09 01:29:22;;;;;;;41.25;27.17;;;;;;;9.12;97.53;102333.00;5030844;28;20018;-76
2023/04/09 01:31:49;;;;;;;37.45;26.13;;;;;;;9.13;98.79;102333.91;5019160;28;20032;-76
2023/04/09 01:34:15;;;;;;;38.22;24.83;;;;;;;9.11;97.91;102336.66;5028817;28;20403;-76
2023/04/09 01:36:43;;;;;;;41.47;27.02;;;;;;;9.13;97.81;102339.25;5033369;28;20029;-75
2023/04/09 01:39:09;;;;;;;37.75;26.00;;;;;;;9.12;98.08;102329.47;5033394;28;20081;-76
2023/04/09 01:41:35;;;;;;;38.92;26.15;;;;;;;9.10;98.39;102325.03;5028736;28;20079;-76
2023/04/09 01:44:03;;;;;;;41.28;26.77;;;;;;;9.09;98.88;102328.66;5029015;28;20052;-75
2023/04/09 01:46:29;;;;;;;39.80;27.42;;;;;;;9.10;99.31;102329.53;5028940;28;20393;-75
2023/04/09 01:48:56;;;;;;;37.38;26.33;;;;;;;9.08;98.45;102334.09;5031563;28;20445;-76
2023/04/09 01:51:21;;;;;;;41.17;27.58;;;;;;;9.07;98.89;102330.53;5027183;28;20026;-76
2023/04/09 01:53:48;;;;;;;37.65;25.58;;;;;;;9.06;99.11;102327.91;5028871;28;20033;-76
2023/04/09 01:56:13;;;;;;;38.90;26.50;;;;;;;9.05;99.54;102327.06;5025457;28;20017;-75
2023/04/09 01:58:39;;;;;;;40.63;28.20;;;;;;;9.05;99.06;102332.41;5027695;28;20164;-77
2023/04/09 02:01:31;;;;;;;39.50;26.50;;;;;;;9.06;99.93;102331.50;5031948;28;20469;-75
2023/04/09 02:04:01;;;;;;;39.13;27.13;;;;;;;9.03;100.00;102326.22;5023608;28;20478;-75
2023/04/09 02:06:52;;;;;;;37.25;26.10;;;;;;;9.03;100.00;102334.28;5032946;28;20045;-76
2023/04/09 02:09:19;;;;;;;42.45;27.60;;;;;;;9.03;100.00;102326.22;5014636;28;20025;-76
2023/04/09 02:11:46;;;;;;;39.83;27.58;;;;;;;9.03;99.77;102328.03;5030812;28;20034;-76
2023/04/09 02:14:13;;;;;;;37.35;25.77;;;;;;;9.03;100.00;102325.38;5031416;28;20374;-75
2023/04/09 02:16:39;;;;;;;41.40;27.30;;;;;;;9.04;100.00;102324.44;5026452;28;20022;-75
2023/04/09 02:19:04;;;;;;;40.25;26.88;;;;;;;9.03;100.00;102328.03;5028847;28;20022;-76
2023/04/09 02:21:31;;;;;;;41.30;28.10;;;;;;;9.02;100.00;102327.19;5029000;28;20557;-76
2023/04/09 02:23:59;;;;;;;42.13;28.27;;;;;;;9.01;99.84;102314.72;5026024;28;20029;-75
2023/04/09 02:26:25;;;;;;;38.60;27.73;;;;;;;9.04;100.00;102319.06;5027254;28;20104;-76
2023/04/09 02:28:50;;;;;;;43.88;29.25;;;;;;;9.03;100.00;102317.31;5020587;28;20049;-76
2023/04/09 02:31:15;;;;;;;41.55;28.23;;;;;;;9.03;100.00;102317.31;5034910;28;20029;-75
2023/04/09 02:33:41;;;;;;;43.72;28.70;;;;;;;9.01;100.00;102319.22;5023565;28;20085;-76
2023/04/09 02:36:11;;;;;;;44.83;29.15;;;;;;;9.01;100.00;102324.56;5025184;28;20481;-76
2023/04/09 02:38:36;;;;;;;44.78;28.55;;;;;;;9.00;100.00;102312.94;5019470;28;20033;-75
2023/04/09 02:41:01;;;;;;;42.08;29.73;;;;;;;9.00;100.00;102315.63;5032710;28;20028;-75
2023/04/09 02:43:26;;;;;;;43.22;29.15;;;;;;;8.99;100.00;102311.22;5026647;28;20117;-76
2023/04/09 02:45:52;;;;;;;43.45;29.48;;;;;;;8.98;100.00;102314.84;5025085;28;20040;-76
2023/04/09 02:48:17;;;;;;;43.50;30.98;;;;;;;8.98;100.00;102309.47;5030091;28;20026;-76
2023/04/09 02:50:42;;;;;;;43.90;29.58;;;;;;;8.97;100.00;102310.41;5028139;28;20029;-75
2023/04/09 02:53:08;;;;;;;46.65;31.90;;;;;;;8.96;100.00;102303.31;5016586;28;20048;-76
2023/04/09 02:55:33;;;;;;;44.38;31.65;;;;;;;8.97;100.00;102310.41;5027445;28;20026;-76
2023/04/09 02:57:58;;;;;;;48.30;30.15;;;;;;;8.98;100.00;102306.78;5029180;28;20461;-76
2023/04/09 03:00:23;;;;;;;47.03;30.35;;;;;;;8.99;100.00;102305.88;5028800;28;20037;-76
2023/04/09 03:02:49;;;;;;;44.65;30.10;;;;;;;9.02;100.00;102294.13;5028905;28;20131;-75
2023/04/09 03:05:14;;;;;;;48.53;30.10;;;;;;;9.01;100.00;102306.66;5032213;28;20026;-75
2023/04/09 03:07:40;;;;;;;46.35;30.45;;;;;;;9.02;100.00;102295.00;5026002;28;20046;-76
2023/04/09 03:10:05;;;;;;;49.25;32.33;;;;;;;9.03;100.00;102295.88;5027029;28;20034;-75
2023/04/09 03:12:30;;;;;;;49.47;31.80;;;;;;;9.03;100.00;102295.88;5026940;28;20034;-76
2023/04/09 03:14:56;;;;;;;47.20;32.20;;;;;;;9.03;100.00;102290.50;5023214;28;20535;-76
2023/04/09 03:17:24;;;;;;;43.38;29.73;;;;;;;9.02;99.60;102289.66;5025393;28;20116;-76
2023/04/09 03:19:49;;;;;;;48.10;33.30;;;;;;;9.01;99.95;102287.88;5028805;28;20025;-75
2023/04/09 03:22:15;;;;;;;50.63;32.78;;;;;;;8.96;99.63;102281.88;5028391;28;20030;-76
2023/04/09 03:24:40;;;;;;;48.78;33.00;;;;;;;8.94;99.89;102285.56;5032445;28;20036;-75
2023/04/09 03:27:05;;;;;;;49.05;33.47;;;;;;;8.92;100.00;102282.94;5029168;28;20116;-76
2023/04/09 03:29:31;;;;;;;48.70;33.83;;;;;;;8.92;100.00;102285.63;5026587;28;20112;-76
2023/04/09 03:31:56;;;;;;;48.35;33.13;;;;;;;8.91;100.00;102289.22;5018151;28;20120;-76
2023/04/09 03:34:23;;;;;;;48.80;33.08;;;;;;;8.88;100.00;102284.00;5027094;28;20563;-75
2023/04/09 03:36:48;;;;;;;47.65;34.28;;;;;;;8.85;100.00;102279.63;5024212;28;20498;-76
2023/04/09 03:39:13;;;;;;;47.00;33.28;;;;;;;8.86;100.00;102280.53;5029606;28;20021;-75
2023/04/09 03:41:39;;;;;;;48.13;33.53;;;;;;;8.84;100.00;102280.56;5021860;28;20091;-76
2023/04/09 03:44:04;;;;;;;49.38;32.75;;;;;;;8.84;100.00;102279.72;5028855;28;20041;-75
2023/04/09 03:46:29;;;;;;;47.13;33.88;;;;;;;8.84;100.00;102279.72;5023636;28;20030;-76
2023/04/09 03:48:55;;;;;;;48.70;32.22;;;;;;;8.83;100.00;102277.94;5027521;28;20038;-75
2023/04/09 03:51:20;;;;;;;44.38;31.08;;;;;;;8.81;100.00;102275.34;5020875;28;20029;-75
2023/04/09 03:53:45;;;;;;;52.58;33.88;;;;;;;8.82;100.00;102273.56;5029316;28;20073;-77
2023/04/09 03:56:11;;;;;;;48.63;34.55;;;;;;;8.83;100.00;102272.59;5025511;28;20029;-76
2023/04/09 03:58:36;;;;;;;51.38;35.08;;;;;;;8.81;100.00;102279.84;5026746;28;20034;-75
2023/04/09 04:01:02;;;;;;;50.05;34.33;;;;;;;8.78;100.00;102270.09;5021167;28;20091;-76
2023/04/09 04:03:28;;;;;;;51.05;34.65;;;;;;;8.78;100.00;102279.97;5023290;28;20038;-75
2023/04/09 04:05:58;;;;;;;44.60;32.92;;;;;;;8.78;100.00;102274.63;5025400;28;20065;-75
2023/04/09 04:08:23;;;;;;;55.20;34.88;;;;;;;8.76;100.00;102276.50;5018865;28;20398;-76
2023/04/09 04:10:49;;;;;;;46.47;30.83;;;;;;;8.73;98.86;102275.69;5024832;28;20036;-76
2023/04/09 04:13:14;;;;;;;50.92;33.08;;;;;;;8.73;98.35;102277.50;5025656;28;20532;-76
2023/04/09 04:15:40;;;;;;;46.15;31.40;;;;;;;8.69;97.64;102278.56;5023760;28;20028;-76
2023/04/09 04:18:06;;;;;;;47.05;31.75;;;;;;;8.66;97.66;102279.56;5019100;28;20043;-76
2023/04/09 04:20:32;;;;;;;48.38;34.72;;;;;;;8.65;97.70;102283.16;5026520;28;20029;-76
2023/04/09 04:22:57;;;;;;;46.47;31.73;;;;;;;8.62;97.86;102283.28;5025847;28;20087;-76
2023/04/09 04:25:23;;;;;;;46.50;32.25;;;;;;;8.61;97.81;102273.53;5024137;28;20026;-75
2023/04/09 04:27:48;;;;;;;46.22;31.17;;;;;;;8.62;98.11;102275.25;5020947;28;20509;-76
2023/04/09 04:30:13;;;;;;;46.35;31.60;;;;;;;8.60;97.84;102274.47;5022144;28;20033;-75
2023/04/09 04:32:39;;;;;;;47.97;32.13;;;;;;;8.57;98.01;102269.22;5021738;28;20052;-76
2023/04/09 04:35:04;;;;;;;48.67;32.53;;;;;;;8.54;97.63;102269.38;5010922;28;20033;-75
2023/04/09 04:37:29;;;;;;;52.25;33.70;;;;;;;8.53;98.21;102271.16;5015906;28;20516;-76
2023/04/09 04:39:55;;;;;;;47.88;31.80;;;;;;;8.52;97.37;102266.75;5020911;28;20048;-76
2023/04/09 04:42:21;;;;;;;48.13;31.55;;;;;;;8.50;97.32;102273.97;5018177;28;20132;-76
2023/04/09 04:44:47;;;;;;;48.45;30.88;;;;;;;8.49;97.36;102282.06;5028499;28;20067;-75
2023/04/09 04:47:12;;;;;;;44.92;30.33;;;;;;;8.46;97.13;102275.00;5025025;28;20049;-76
2023/04/09 04:49:37;;;;;;;46.47;33.45;;;;;;;8.44;97.87;102278.69;5019267;28;20444;-75
2023/04/09 04:52:03;;;;;;;50.33;30.73;;;;;;;8.39;97.71;102279.75;5019072;28;20030;-76
2023/04/09 04:54:28;;;;;;;46.30;31.52;;;;;;;8.34;97.63;102278.19;5024732;28;20060;-75
2023/04/09 04:56:53;;;;;;;46.97;31.20;;;;;;;8.30;97.92;102285.50;5021839;28;20040;-75
2023/04/09 04:59:19;;;;;;;50.10;32.25;;;;;;;8.23;98.22;102281.31;5015890;28;20022;-76
2023/04/09 05:01:44;;;;;;;46.65;31.75;;;;;;;8.16;98.02;102277.13;5020492;28;20373;-76
2023/04/09 05:04:09;;;;;;;47.38;30.70;;;;;;;8.10;98.89;102280.06;5023395;28;20080;-76
2023/04/09 05:06:35;;;;;;;48.70;32.22;;;;;;;8.06;98.93;102281.97;5016272;28;20350;-75
2023/04/09 05:09:00;;;;;;;48.00;30.35;;;;;;;8.03;98.27;102282.09;5015099;28;20032;-75
2023/04/09 05:11:28;;;;;;;47.95;31.55;;;;;;;7.96;97.59;102275.25;5024483;28;20037;-76
2023/04/09 05:13:54;;;;;;;44.17;28.30;;;;;;;7.90;97.96;102271.00;5023985;28;20492;-76
2023/04/09 05:16:19;;;;;;;44.30;30.75;;;;;;;7.83;98.06;102270.38;5014653;28;20030;-75
2023/04/09 05:18:45;;;;;;;45.13;29.40;;;;;;;7.80;98.06;102272.28;5032373;28;20535;-76
2023/04/09 05:21:11;;;;;;;42.22;28.70;;;;;;;7.75;98.66;102279.63;5018969;28;20048;-76
2023/04/09 05:23:36;;;;;;;46.00;30.55;;;;;;;7.72;98.56;102277.06;5020959;28;20110;-75
2023/04/09 05:26:01;;;;;;;44.72;30.02;;;;;;;7.66;98.91;102279.03;5014018;28;20093;-75
2023/04/09 05:28:27;;;;;;;42.33;28.20;;;;;;;7.63;99.28;102283.66;5015391;28;20025;-75
2023/04/09 05:30:52;;;;;;;42.10;29.00;;;;;;;7.60;99.08;102281.06;5017629;28;20026;-76
2023/04/09 05:33:17;;;;;;;44.30;30.80;;;;;;;7.56;99.04;102280.31;5023054;28;20057;-76
2023/04/09 05:35:43;;;;;;;43.85;30.67;;;;;;;7.53;99.18;102283.97;5019039;28;20445;-76
2023/04/09 05:38:08;;;;;;;51.17;30.98;;;;;;;7.51;99.37;102280.50;5020681;28;20089;-76
2023/04/09 05:40:34;;;;;;;41.92;29.08;;;;;;;7.52;99.28;102281.38;5024823;28;20422;-76
2023/04/09 05:42:59;;;;;;;41.65;28.02;;;;;;;7.49;98.96;102281.47;5021966;28;20041;-76
2023/04/09 05:45:25;;;;;;;43.55;29.13;;;;;;;7.46;98.96;102270.91;5024121;28;20030;-76
2023/04/09 05:47:50;;;;;;;47.67;29.27;;;;;;;7.47;99.39;102281.53;5022421;28;20120;-76
2023/04/09 05:50:15;;;;;;;45.65;29.23;;;;;;;7.48;99.01;102283.28;5025745;28;20048;-75
2023/04/09 05:52:41;;;;;;;42.97;29.55;;;;;;;7.48;98.74;102275.28;5017256;28;20061;-75
2023/04/09 05:55:08;;;;;;;42.22;28.90;;;;;;;7.48;98.44;102282.41;5023114;28;20092;-75
2023/04/09 05:57:34;;;;;;;47.15;30.00;;;;;;;7.45;99.35;102286.09;5027170;28;20082;-76
2023/04/09 05:59:59;;;;;;;43.95;28.50;;;;;;;7.47;99.36;102283.34;5022914;28;20034;-76
2023/04/09 06:02:25;;;;;;;45.20;28.77;;;;;;;7.48;99.79;102291.31;5024451;28;20029;-75
2023/04/09 06:04:50;;;;;;;51.30;29.25;;;;;;;7.51;99.79;102295.66;5027261;28;20033;-75
2023/04/09 06:07:16;;;;;;;44.13;28.88;;;;;;;7.50;99.11;102297.47;5022862;28;20083;-76
2023/04/09 06:09:43;;;;;;;49.50;30.38;;;;;;;7.50;99.33;102299.28;5017600;28;20033;-75
2023/04/09 06:12:08;;;;;;;45.28;30.88;;;;;;;7.49;98.78;102295.72;5027520;28;20022;-76
2023/04/09 06:14:34;;;;;;;44.15;29.23;;;;;;;7.50;98.74;102296.63;5026699;28;20044;-75
2023/04/09 06:16:59;;;;;;;42.30;28.65;;;;;;;7.49;99.11;102294.84;5020138;28;20053;-75
2023/04/09 06:19:24;;;;;;;45.25;28.52;;;;;;;7.51;98.40;102306.38;5029869;28;20029;-76
2023/04/09 06:21:50;;;;;;;46.83;28.27;;;;;;;7.51;98.39;102299.22;5021891;28;20100;-75
2023/04/09 06:24:15;;;;;;;47.00;29.40;;;;;;;7.51;98.52;102301.00;5020959;28;20085;-75
2023/04/09 06:26:40;;;;;;;44.63;28.77;;;;;;;7.50;98.87;102299.28;5024700;28;20022;-75
2023/04/09 06:29:06;;;;;;;47.10;30.88;;;;;;;7.52;99.60;102297.41;5026269;28;20080;-75
2023/04/09 06:31:32;;;;;;;43.30;27.83;;;;;;;7.54;99.00;102295.56;5021787;28;20124;-75
2023/04/09 06:33:57;;;;;;;39.83;26.38;;;;;;;7.57;98.96;102299.91;5016782;28;20041;-75
2023/04/09 06:36:23;;;;;;;43.85;29.42;;;;;;;7.60;98.47;102306.03;5026853;28;20156;-76
2023/04/09 06:38:48;;;;;;;42.38;29.55;;;;;;;7.64;98.40;102293.41;5024925;28;20131;-75
2023/04/09 06:41:13;;;;;;;46.97;31.42;;;;;;;7.67;98.59;102299.53;5016404;28;20188;-76
2023/04/09 06:43:39;;;;;;;44.60;29.88;;;;;;;7.71;98.24;102308.31;5022217;28;20018;-76
2023/04/09 06:46:05;;;;;;;44.10;29.90;;;;;;;7.77;98.46;102307.19;5029331;28;20500;-76
2023/04/09 06:48:31;;;;;;;47.00;31.83;;;;;;;7.79;97.99;102308.91;5029154;28;20077;-75
2023/04/09 06:50:56;;;;;;;47.97;29.70;;;;;;;7.80;98.08;102307.94;5021380;28;20026;-76
2023/04/09 06:53:21;;;;;;;44.15;30.77;;;;;;;7.84;97.89;102312.25;5027887;28;20028;-76
2023/04/09 06:55:47;;;;;;;44.00;30.23;;;;;;;7.84;97.01;102311.41;5032657;28;20117;-77
2023/04/09 06:58:12;;;;;;;42.55;30.48;;;;;;;7.86;97.33;102315.75;5021022;28;20074;-76
2023/04/09 07:00:37;;;;;;;49.58;32.00;;;;;;;7.86;97.01;102313.09;5023768;28;20045;-76
2023/04/09 07:03:04;;;;;;;49.22;32.72;;;;;;;7.84;97.23;102320.28;5016570;28;20033;-76
2023/04/09 07:05:30;;;;;;;45.97;30.63;;;;;;;7.85;97.17;102315.81;5021355;28;20021;-75
2023/04/09 07:07:55;;;;;;;47.05;32.95;;;;;;;7.89;97.60;102317.41;5030217;28;20437;-76
2023/04/09 07:10:20;;;;;;;44.13;29.00;;;;;;;7.91;97.49;102320.06;5016977;28;20184;-75
2023/04/09 07:12:46;;;;;;;48.55;34.45;;;;;;;7.93;97.38;102307.50;5019602;28;20476;-75
2023/04/09 07:15:11;;;;;;;45.55;31.77;;;;;;;7.99;97.15;102317.94;5026354;28;20045;-76
2023/04/09 07:17:36;;;;;;;44.38;31.10;;;;;;;8.02;97.16;102317.84;5018876;28;20030;-75
2023/04/09 07:20:02;;;;;;;45.80;30.85;;;;;;;8.06;97.38;102316.78;5021504;28;20077;-76
2023/04/09 07:22:28;;;;;;;47.50;32.33;;;;;;;8.08;96.49;102322.94;5018641;28;20028;-75
2023/04/09 07:24:54;;;;;;;46.97;32.50;;;;;;;8.12;96.67;102324.56;5028072;28;20079;-75
2023/04/09 07:27:26;;;;;;;44.00;32.47;;;;;;;8.17;96.38;102317.25;5019684;28;20013;-76
2023/04/09 07:29:58;;;;;;;50.75;33.20;;;;;;;8.22;96.31;102320.59;5015042;28;20401;-75
2023/04/09 07:32:25;;;;;;;46.50;32.80;;;;;;;8.31;96.40;102318.50;5011910;28;20053;-76
2023/04/09 07:34:51;;;;;;;50.25;32.38;;;;;;;8.39;96.69;102322.59;5019595;28;20033;-75
2023/04/09 07:37:17;;;;;;;50.72;34.35;;;;;;;8.45;95.56;102326.00;5022857;28;20128;-76
2023/04/09 07:39:42;;;;;;;46.05;31.75;;;;;;;8.49;95.41;102317.78;5021247;28;20448;-76
2023/04/09 07:42:08;;;;;;;44.08;31.83;;;;;;;8.56;94.53;102330.00;5022193;28;20116;-76
2023/04/09 07:44:36;;;;;;;51.08;34.80;;;;;;;8.66;94.83;102329.63;5016022;28;20049;-76
2023/04/09 07:47:03;;;;;;;45.13;32.72;;;;;;;8.74;95.54;102316.75;5024222;28;20087;-76
2023/04/09 07:49:28;;;;;;;44.38;32.72;;;;;;;8.88;95.46;102319.72;5019302;28;20523;-76
2023/04/09 07:51:54;;;;;;;43.60;31.23;;;;;;;9.03;97.30;102322.69;5024324;28;20089;-76
2023/04/09 07:54:22;;;;;;;49.65;34.97;;;;;;;9.08;93.07;102318.00;5026592;28;20393;-75
2023/04/09 07:56:47;;;;;;;47.10;32.63;;;;;;;9.18;93.52;102327.41;5021538;28;20113;-75
2023/04/09 07:59:14;;;;;;;48.10;34.55;;;;;;;9.24;92.44;102320.91;5020598;28;20119;-75
2023/04/09 08:01:40;;;;;;;46.90;33.45;;;;;;;9.29;92.90;102318.88;5016211;28;20022;-76
2023/04/09 08:04:06;;;;;;;44.05;32.53;;;;;;;9.33;91.95;102324.97;5018348;28;20029;-75
2023/04/09 08:06:31;;;;;;;50.10;32.42;;;;;;;9.34;91.10;102316.88;5011560;28;20117;-76
2023/04/09 08:08:56;;;;;;;53.28;36.90;;;;;;;9.36;91.68;102320.34;5015693;28;20034;-76
2023/04/09 08:11:24;;;;;;;46.30;33.40;;;;;;;9.39;92.00;102316.66;5018134;28;20037;-76
2023/04/09 08:13:52;;;;;;;47.72;34.22;;;;;;;9.42;91.92;102319.19;5014340;28;20030;-77
2023/04/09 08:16:19;;;;;;;44.60;33.33;;;;;;;9.45;90.78;102313.69;5012756;28;20068;-76
2023/04/09 08:18:45;;;;;;;44.85;34.17;;;;;;;9.49;90.76;102320.66;5027270;28;20032;-76
2023/04/09 08:21:10;;;;;;;45.95;34.10;;;;;;;9.52;91.07;102311.59;5027131;28;20397;-76
2023/04/09 08:23:36;;;;;;;46.50;34.53;;;;;;;9.56;90.86;102322.13;5023176;28;20159;-76
2023/04/09 08:26:02;;;;;;;48.38;35.08;;;;;;;9.62;91.54;102318.31;5022292;28;20064;-76
2023/04/09 08:28:27;;;;;;;48.42;35.45;;;;;;;9.69;90.92;102317.06;5019621;28;20030;-76
2023/04/09 08:30:52;;;;;;;53.33;36.95;;;;;;;9.78;91.93;102319.34;5023568;28;20543;-77
2023/04/09 08:33:18;;;;;;;47.10;34.95;;;;;;;9.86;90.43;102316.28;5026040;28;20408;-76
2023/04/09 08:35:43;;;;;;;46.55;34.40;;;;;;;9.96;90.72;102319.41;5034367;28;20033;-77
2023/04/09 08:38:09;;;;;;;50.10;36.45;;;;;;;9.99;88.30;102313.03;5022856;28;20022;-77
2023/04/09 08:40:35;;;;;;;49.15;36.22;;;;;;;10.06;88.80;102315.34;5014172;28;20053;-76
2023/04/09 08:43:04;;;;;;;46.42;36.13;;;;;;;10.12;89.89;102315.03;5011335;28;20109;-76
2023/04/09 08:45:30;;;;;;;44.17;35.80;;;;;;;10.22;88.95;102309.22;5005189;28;20028;-77
2023/04/09 08:47:58;;;;;;;49.15;35.42;;;;;;;10.31;87.80;102312.34;5017592;28;20489;-78
2023/04/09 08:50:24;;;;;;;44.92;35.03;;;;;;;10.39;88.08;102314.69;5030472;28;20022;-77
2023/04/09 08:52:49;;;;;;;45.13;34.78;;;;;;;10.41;86.89;102312.81;5027551;28;20052;-76
2023/04/09 08:55:15;;;;;;;48.00;35.95;;;;;;;10.41;87.04;102307.44;5025531;28;20060;-76
2023/04/09 08:57:41;;;;;;;43.47;32.45;;;;;;;10.41;87.27;102307.44;5027817;28;20142;-76
2023/04/09 09:00:07;;;;;;;46.00;34.08;;;;;;;10.46;88.55;102310.75;5024815;28;20022;-76
2023/04/09 09:02:33;;;;;;;52.88;37.20;;;;;;;10.51;88.70;102312.34;5019791;28;20140;-76
2023/04/09 09:04:59;;;;;;;48.60;37.28;;;;;;;10.53;87.42;102307.75;5025944;28;20021;-76
2023/04/09 09:07:28;;;;;;;50.72;36.15;;;;;;;10.57;87.49;102314.72;5025255;28;20073;-76
2023/04/09 09:09:59;;;;;;;45.53;33.60;;;;;;;10.62;86.49;102307.31;5027149;28;20096;-76
2023/04/09 09:12:40;;;;;;;47.05;35.28;;;;;;;10.69;85.91;102311.44;5010878;28;20041;-76
2023/04/09 09:15:27;;;;;;;46.20;34.65;;;;;;;10.77;86.80;102311.03;5028823;28;20084;-76
2023/04/09 09:17:57;;;;;;;47.53;33.58;;;;;;;10.88;87.31;102305.09;5027573;28;20025;-76
2023/04/09 09:20:23;;;;;;;44.88;35.35;;;;;;;10.92;85.08;102304.00;5030124;28;20041;-76
2023/04/09 09:22:51;;;;;;;43.85;33.75;;;;;;;11.00;84.75;102309.88;5028610;28;20051;-77
2023/04/09 09:25:16;;;;;;;45.72;31.95;;;;;;;11.11;85.42;102303.91;5026454;28;20036;-76
2023/04/09 09:27:42;;;;;;;45.00;32.97;;;;;;;11.16;84.18;102299.16;5020541;28;20422;-76
2023/04/09 09:30:18;;;;;;;44.33;32.78;;;;;;;11.29;85.12;102302.06;5024474;28;20090;-76
2023/04/09 09:32:44;;;;;;;46.47;35.20;;;;;;;11.33;83.28;102293.78;5024488;28;20038;-76
2023/04/09 09:35:09;;;;;;;42.75;32.65;;;;;;;11.37;81.16;102298.00;5025280;28;20060;-76
2023/04/09 09:37:35;;;;;;;45.20;32.90;;;;;;;11.43;82.90;102299.50;5024359;28;20114;-77
2023/04/09 09:40:00;;;;;;;43.55;34.22;;;;;;;11.45;82.54;102294.03;5027013;28;20113;-77
2023/04/09 09:42:26;;;;;;;44.63;32.65;;;;;;;11.48;83.93;102285.78;5030849;28;20073;-76
2023/04/09 09:44:53;;;;;;;40.75;28.90;;;;;;;11.49;82.32;102287.53;5023045;28;20474;-76
2023/04/09 09:47:20;;;;;;;43.28;29.40;;;;;;;11.51;82.00;102283.81;5043519;28;20044;-77
2023/04/09 09:49:49;;;;;;;40.72;30.33;;;;;;;11.51;81.04;102278.44;5031224;28;20063;-76
2023/04/09 09:52:16;;;;;;;40.90;30.50;;;;;;;11.57;82.95;102277.25;5026465;28;20038;-77
2023/04/09 09:54:47;;;;;;;43.50;31.38;;;;;;;11.57;80.46;102270.97;5036758;28;20060;-77
2023/04/09 09:57:15;;;;;;;43.88;31.40;;;;;;;11.63;82.39;102267.97;5029126;28;20366;-76
2023/04/09 09:59:46;;;;;;;42.80;31.95;;;;;;;11.64;79.19;102265.19;5027582;28;20038;-77
2023/04/09 10:02:52;;;;;;;40.20;27.67;;;;;;;11.74;82.36;102265.50;5031322;28;20389;-76
2023/04/09 10:05:18;;;;;;;35.95;24.27;;;;;;;11.72;77.08;102259.34;5012990;28;20030;-77
2023/04/09 10:07:45;;;;;;;39.45;27.50;;;;;;;11.76;79.82;102258.25;5031817;28;20084;-77
2023/04/09 10:10:10;;;;;;;33.65;23.60;;;;;;;11.86;80.34;102269.38;5029151;28;20362;-76
2023/04/09 10:12:37;;;;;;;33.03;20.95;;;;;;;11.88;75.24;102265.63;5030974;28;20038;-77
2023/04/09 10:15:05;;;;;;;29.67;18.10;;;;;;;11.96;73.17;102259.84;5029437;28;20370;-76
2023/04/09 10:17:31;;;;;;;28.63;17.73;;;;;;;12.07;76.06;102261.94;5025527;28;20034;-76
2023/04/09 10:20:14;;;;;;;32.03;22.20;;;;;;;12.14;76.03;102252.53;5032443;28;20034;-77
2023/04/09 10:22:44;;;;;;;33.97;21.27;;;;;;;12.19;74.98;102245.03;5031329;28;20044;-77
2023/04/09 10:25:09;;;;;;;29.52;18.17;;;;;;;12.22;72.36;102250.25;5035037;28;20021;-76
2023/04/09 10:27:35;;;;;;;32.70;19.17;;;;;;;12.19;71.35;102242.34;5033035;28;20053;-76
2023/04/09 10:30:01;;;;;;;33.00;20.17;;;;;;;12.21;72.08;102251.22;5030082;28;20025;-77
2023/04/09 10:32:27;;;;;;;30.45;18.92;;;;;;;12.24;71.92;102237.56;5032329;28;20339;-76
2023/04/09 10:34:59;;;;;;;29.92;18.77;;;;;;;12.28;71.97;102245.47;5027374;28;20032;-76
2023/04/09 10:37:26;;;;;;;33.20;20.30;;;;;;;12.37;71.93;102229.63;5033235;28;20022;-77
2023/04/09 10:39:53;;;;;;;31.55;20.75;;;;;;;12.47;72.83;102238.03;5033938;28;20025;-77
2023/04/09 10:42:23;;;;;;;33.42;20.35;;;;;;;12.60;72.41;102227.38;5023028;28;20045;-76
2023/04/09 10:45:10;;;;;;;28.88;16.63;;;;;;;12.64;71.09;102233.47;5021497;28;20035;-76
2023/04/09 10:47:38;;;;;;;30.85;18.92;;;;;;;12.73;70.09;102224.81;5031954;28;20021;-76
2023/04/09 10:50:18;;;;;;;31.90;19.42;;;;;;;12.78;70.71;102225.41;5020140;28;20037;-77
2023/04/09 10:52:44;;;;;;;33.13;19.63;;;;;;;12.79;68.98;102221.75;5030092;28;20049;-77
2023/04/09 10:55:29;;;;;;;31.27;19.67;;;;;;;12.89;73.24;102212.13;5029727;28;20573;-76
2023/04/09 10:57:55;;;;;;;28.55;17.52;;;;;;;13.02;71.18;102222.19;5017949;28;20029;-78
2023/04/09 11:00:20;;;;;;;28.92;18.95;;;;;;;13.07;68.29;102210.13;5032309;28;20133;-76
2023/04/09 11:03:04;;;;;;;30.58;18.33;;;;;;;13.19;70.58;102219.31;5033627;28;20079;-77
2023/04/09 11:05:33;;;;;;;31.30;19.33;;;;;;;13.25;67.93;102208.13;5029438;28;20045;-76
2023/04/09 11:08:01;;;;;;;30.70;19.55;;;;;;;13.28;67.96;102223.28;5033788;28;20042;-76
2023/04/09 11:10:27;;;;;;;30.13;18.67;;;;;;;13.30;68.80;102210.53;5036883;28;20033;-76
2023/04/09 11:12:53;;;;;;;35.25;20.15;;;;;;;13.31;67.24;102208.69;5030328;28;20026;-76
2023/04/09 11:15:19;;;;;;;34.25;21.17;;;;;;;13.37;69.34;102211.06;5030405;28;20113;-76